sensor_id;sensor_type;location;lat;lon;timestamp;pressure;altitude;pressure_sealevel;temperature;humidity
34983;BME280;21187;50.976;13.720;2023-10-09T00:03:43;98817.72;;;14.33;53.10
34983;BME280;21187;50.976;13.720;2023-10-09T00:08:46;98814.28;;;14.36;52.98
34983;BME280;21187;50.976;13.720;2023-10-09T00:13:52;98816.72;;;14.41;53.11
34983;BME280;21187;50.976;13.720;2023-10-09T00:19:04;98798.91;;;14.47;52.74
34983;BME280;21187;50.976;13.720;2023-10-09T00:24:16;98789.59;;;14.48;52.71
34983;BME280;21187;50.976;13.720;2023-10-09T00:29:27;98767.09;;;14.52;52.72
34983;BME280;21187;50.976;13.720;2023-10-09T00:34:30;98768.78;;;14.60;52.93
34983;BME280;21187;50.976;13.720;2023-10-09T00:39:45;98755.56;;;14.62;52.99
34983;BME280;21187;50.976;13.720;2023-10-09T00:44:50;98725.88;;;14.57;53.18
34983;BME280;21187;50.976;13.720;2023-10-09T00:50:00;98692.34;;;14.53;53.37
34983;BME280;21187;50.976;13.720;2023-10-09T00:55:17;98662.25;;;14.45;52.98
34983;BME280;21187;50.976;13.720;2023-10-09T01:00:23;98700.31;;;14.42;53.21
34983;BME280;21187;50.976;13.720;2023-10-09T01:05:56;98672.41;;;14.48;53.29
34983;BME280;21187;50.976;13.720;2023-10-09T01:11:14;98690.88;;;14.59;53.24
34983;BME280;21187;50.976;13.720;2023-10-09T01:16:31;98681.34;;;14.69;53.01
34983;BME280;21187;50.976;13.720;2023-10-09T01:21:33;98684.97;;;14.76;52.98
34983;BME280;21187;50.976;13.720;2023-10-09T01:26:36;98662.13;;;14.85;53.02
34983;BME280;21187;50.976;13.720;2023-10-09T01:31:53;98653.69;;;14.93;52.87
34983;BME280;21187;50.976;13.720;2023-10-09T01:37:02;98640.50;;;14.99;53.27
34983;BME280;21187;50.976;13.720;2023-10-09T01:42:08;98619.88;;;14.98;53.37
34983;BME280;21187;50.976;13.720;2023-10-09T01:47:11;98626.16;;;15.02;53.50
34983;BME280;21187;50.976;13.720;2023-10-09T01:52:16;98618.38;;;15.04;53.42
34983;BME280;21187;50.976;13.720;2023-10-09T01:57:19;98620.75;;;15.06;53.51
34983;BME280;21187;50.976;13.720;2023-10-09T02:02:25;98618.44;;;15.08;53.56
34983;BME280;21187;50.976;13.720;2023-10-09T02:07:27;98601.31;;;15.11;53.52
34983;BME280;21187;50.976;13.720;2023-10-09T02:12:29;98581.88;;;15.12;53.73
34983;BME280;21187;50.976;13.720;2023-10-09T02:17:35;98569.38;;;15.11;53.61
34983;BME280;21187;50.976;13.720;2023-10-09T02:22:53;98557.22;;;15.05;53.88
34983;BME280;21187;50.976;13.720;2023-10-09T02:27:55;98550.94;;;15.01;54.10
34983;BME280;21187;50.976;13.720;2023-10-09T02:33:01;98541.91;;;14.97;54.10
34983;BME280;21187;50.976;13.720;2023-10-09T02:38:10;98527.81;;;14.91;54.18
34983;BME280;21187;50.976;13.720;2023-10-09T02:43:16;98512.88;;;14.81;54.38
34983;BME280;21187;50.976;13.720;2023-10-09T02:48:19;98509.69;;;14.76;54.86
34983;BME280;21187;50.976;13.720;2023-10-09T02:53:22;98497.91;;;14.68;55.14
34983;BME280;21187;50.976;13.720;2023-10-09T02:58:31;98479.13;;;14.63;55.13
34983;BME280;21187;50.976;13.720;2023-10-09T03:03:37;98466.63;;;14.62;55.31
34983;BME280;21187;50.976;13.720;2023-10-09T03:08:40;98432.72;;;14.59;55.10
34983;BME280;21187;50.976;13.720;2023-10-09T03:13:42;98430.81;;;14.60;55.45
34983;BME280;21187;50.976;13.720;2023-10-09T03:18:52;98421.53;;;14.64;55.36
34983;BME280;21187;50.976;13.720;2023-10-09T03:23:54;98405.13;;;14.61;55.25
34983;BME280;21187;50.976;13.720;2023-10-09T03:28:58;98395.47;;;14.67;55.46
34983;BME280;21187;50.976;13.720;2023-10-09T03:34:03;98383.50;;;14.75;55.45
34983;BME280;21187;50.976;13.720;2023-10-09T03:39:06;98367.88;;;14.72;55.69
34983;BME280;21187;50.976;13.720;2023-10-09T03:44:26;98360.03;;;14.67;55.97
34983;BME280;21187;50.976;13.720;2023-10-09T03:49:30;98368.31;;;14.74;56.29
34983;BME280;21187;50.976;13.720;2023-10-09T03:54:33;98371.09;;;14.81;56.05
34983;BME280;21187;50.976;13.720;2023-10-09T03:59:37;98369.63;;;14.88;56.00
34983;BME280;21187;50.976;13.720;2023-10-09T04:04:39;98378.19;;;14.90;55.86
34983;BME280;21187;50.976;13.720;2023-10-09T04:09:41;98379.88;;;14.98;56.01
34983;BME280;21187;50.976;13.720;2023-10-09T04:14:46;98371.34;;;15.03;56.08
34983;BME280;21187;50.976;13.720;2023-10-09T04:20:04;98383.03;;;15.04;55.99
34983;BME280;21187;50.976;13.720;2023-10-09T04:25:21;98383.81;;;15.04;56.21
34983;BME280;21187;50.976;13.720;2023-10-09T04:30:43;98383.38;;;14.98;55.92
34983;BME280;21187;50.976;13.720;2023-10-09T04:35:45;98382.16;;;14.96;56.10
34983;BME280;21187;50.976;13.720;2023-10-09T04:41:07;98382.94;;;14.93;55.96
34983;BME280;21187;50.976;13.720;2023-10-09T04:46:10;98369.28;;;14.93;55.87
34983;BME280;21187;50.976;13.720;2023-10-09T04:51:25;98363.75;;;14.86;56.59
34983;BME280;21187;50.976;13.720;2023-10-09T04:56:57;98358.28;;;14.86;56.25
34983;BME280;21187;50.976;13.720;2023-10-09T05:01:59;98333.75;;;14.86;56.34
34983;BME280;21187;50.976;13.720;2023-10-09T05:07:01;98330.63;;;14.84;56.65
34983;BME280;21187;50.976;13.720;2023-10-09T05:12:23;98315.75;;;14.77;56.76
34983;BME280;21187;50.976;13.720;2023-10-09T05:17:30;98320.34;;;14.70;56.78
34983;BME280;21187;50.976;13.720;2023-10-09T05:22:35;98309.50;;;14.73;56.72
34983;BME280;21187;50.976;13.720;2023-10-09T05:27:40;98304.03;;;14.73;56.98
34983;BME280;21187;50.976;13.720;2023-10-09T05:32:56;98315.00;;;14.77;56.79
34983;BME280;21187;50.976;13.720;2023-10-09T05:38:21;98289.25;;;14.74;56.71
34983;BME280;21187;50.976;13.720;2023-10-09T05:43:26;98286.44;;;14.67;57.18
34983;BME280;21187;50.976;13.720;2023-10-09T05:48:47;98281.28;;;14.62;57.21
34983;BME280;21187;50.976;13.720;2023-10-09T05:53:56;98302.41;;;14.69;57.25
34983;BME280;21187;50.976;13.720;2023-10-09T05:59:14;98302.47;;;14.72;57.05
34983;BME280;21187;50.976;13.720;2023-10-09T06:04:34;98320.41;;;14.73;57.36
34983;BME280;21187;50.976;13.720;2023-10-09T06:09:56;98313.03;;;14.77;57.24
34983;BME280;21187;50.976;13.720;2023-10-09T06:15:00;98304.00;;;14.70;57.71
34983;BME280;21187;50.976;13.720;2023-10-09T06:20:32;98305.53;;;14.67;58.01
34983;BME280;21187;50.976;13.720;2023-10-09T06:26:10;98304.13;;;14.84;58.53
34983;BME280;21187;50.976;13.720;2023-10-09T06:31:25;98288.03;;;15.13;59.71
34983;BME280;21187;50.976;13.720;2023-10-09T06:36:43;98292.19;;;15.44;60.52
34983;BME280;21187;50.976;13.720;2023-10-09T06:41:56;98295.16;;;15.80;62.30
34983;BME280;21187;50.976;13.720;2023-10-09T06:47:12;98298.03;;;16.09;61.85
34983;BME280;21187;50.976;13.720;2023-10-09T06:52:14;98298.09;;;16.24;61.90
34983;BME280;21187;50.976;13.720;2023-10-09T06:57:36;98302.03;;;16.34;61.92
34983;BME280;21187;50.976;13.720;2023-10-09T07:02:50;98299.72;;;16.43;62.03
34983;BME280;21187;50.976;13.720;2023-10-09T07:07:55;98322.03;;;16.56;62.45
34983;BME280;21187;50.976;13.720;2023-10-09T07:13:05;98315.03;;;16.66;62.84
34983;BME280;21187;50.976;13.720;2023-10-09T07:18:09;98320.13;;;16.74;63.00
34983;BME280;21187;50.976;13.720;2023-10-09T07:23:21;98332.66;;;16.79;63.62
34983;BME280;21187;50.976;13.720;2023-10-09T07:28:24;98331.47;;;16.84;63.52
34983;BME280;21187;50.976;13.720;2023-10-09T07:33:39;98336.59;;;16.92;63.03
34983;BME280;21187;50.976;13.720;2023-10-09T07:38:58;98338.16;;;16.97;62.78
34983;BME280;21187;50.976;13.720;2023-10-09T07:44:03;98353.03;;;16.96;63.22
34983;BME280;21187;50.976;13.720;2023-10-09T07:49:20;98365.91;;;16.95;63.12
34983;BME280;21187;50.976;13.720;2023-10-09T07:54:29;98368.66;;;16.92;63.01
34983;BME280;21187;50.976;13.720;2023-10-09T07:59:36;98347.53;;;16.92;63.04
34983;BME280;21187;50.976;13.720;2023-10-09T08:04:43;98364.34;;;16.94;63.19
34983;BME280;21187;50.976;13.720;2023-10-09T08:09:51;98363.19;;;16.92;63.55
34983;BME280;21187;50.976;13.720;2023-10-09T08:15:15;98371.78;;;16.94;63.84
34983;BME280;21187;50.976;13.720;2023-10-09T08:20:24;98357.72;;;16.92;64.04
34983;BME280;21187;50.976;13.720;2023-10-09T08:25:38;98364.72;;;16.93;64.42
34983;BME280;21187;50.976;13.720;2023-10-09T08:30:58;98358.09;;;16.94;64.54
34983;BME280;21187;50.976;13.720;2023-10-09T08:36:20;98372.56;;;16.98;64.41
34983;BME280;21187;50.976;13.720;2023-10-09T08:41:25;98372.56;;;16.98;64.19
34983;BME280;21187;50.976;13.720;2023-10-09T08:46:32;98381.94;;;16.97;64.36
34983;BME280;21187;50.976;13.720;2023-10-09T08:51:34;98371.78;;;16.94;64.33
34983;BME280;21187;50.976;13.720;2023-10-09T08:56:37;98373.28;;;16.88;64.42
34983;BME280;21187;50.976;13.720;2023-10-09T09:01:41;98388.91;;;16.84;64.67
34983;BME280;21187;50.976;13.720;2023-10-09T09:06:43;98389.66;;;16.77;64.57
34983;BME280;21187;50.976;13.720;2023-10-09T09:11:45;98389.66;;;16.73;64.42
34983;BME280;21187;50.976;13.720;2023-10-09T09:16:50;98389.66;;;16.70;64.35
34983;BME280;21187;50.976;13.720;2023-10-09T09:21:57;98383.38;;;16.69;64.35
34983;BME280;21187;50.976;13.720;2023-10-09T09:27:13;98408.78;;;16.66;64.17
34983;BME280;21187;50.976;13.720;2023-10-09T09:32:27;98416.19;;;16.69;64.16
34983;BME280;21187;50.976;13.720;2023-10-09T09:37:37;98400.56;;;16.66;64.30
34983;BME280;21187;50.976;13.720;2023-10-09T09:42:46;98390.38;;;16.56;64.53
34983;BME280;21187;50.976;13.720;2023-10-09T09:47:50;98398.97;;;16.61;64.56
34983;BME280;21187;50.976;13.720;2023-10-09T09:52:55;98398.97;;;16.61;64.75
34983;BME280;21187;50.976;13.720;2023-10-09T09:57:58;98390.78;;;16.65;64.66
34983;BME280;21187;50.976;13.720;2023-10-09T10:03:05;98396.25;;;16.65;64.73
34983;BME280;21187;50.976;13.720;2023-10-09T10:08:09;98385.75;;;16.74;64.31
34983;BME280;21187;50.976;13.720;2023-10-09T10:13:15;98394.38;;;16.84;64.03
34983;BME280;21187;50.976;13.720;2023-10-09T10:18:24;98386.53;;;16.78;64.28
34983;BME280;21187;50.976;13.720;2023-10-09T10:23:30;98375.59;;;16.78;64.43
34983;BME280;21187;50.976;13.720;2023-10-09T10:28:34;98392.00;;;16.78;64.36
34983;BME280;21187;50.976;13.720;2023-10-09T10:34:06;98370.13;;;16.78;64.06
34983;BME280;21187;50.976;13.720;2023-10-09T10:39:09;98376.78;;;16.81;64.02
34983;BME280;21187;50.976;13.720;2023-10-09T10:44:33;98380.31;;;16.82;63.95
34983;BME280;21187;50.976;13.720;2023-10-09T10:49:36;98381.09;;;16.86;64.10
34983;BME280;21187;50.976;13.720;2023-10-09T10:54:42;98378.38;;;16.86;64.11
34983;BME280;21187;50.976;13.720;2023-10-09T10:59:44;98376.44;;;16.90;64.24
34983;BME280;21187;50.976;13.720;2023-10-09T11:04:46;98363.56;;;16.94;64.37
34983;BME280;21187;50.976;13.720;2023-10-09T11:09:56;98356.94;;;16.95;64.59
34983;BME280;21187;50.976;13.720;2023-10-09T11:15:14;98349.91;;;17.01;64.38
34983;BME280;21187;50.976;13.720;2023-10-09T11:20:25;98337.41;;;17.07;64.10
34983;BME280;21187;50.976;13.720;2023-10-09T11:25:28;98335.84;;;17.10;64.06
34983;BME280;21187;50.976;13.720;2023-10-09T11:30:32;98335.84;;;17.13;63.90
34983;BME280;21187;50.976;13.720;2023-10-09T11:35:34;98331.16;;;17.21;63.63
34983;BME280;21187;50.976;13.720;2023-10-09T11:40:36;98328.81;;;17.30;63.32
34983;BME280;21187;50.976;13.720;2023-10-09T11:46:09;98323.34;;;17.27;63.73
34983;BME280;21187;50.976;13.720;2023-10-09T11:51:15;98341.34;;;17.32;63.42
34983;BME280;21187;50.976;13.720;2023-10-09T11:56:23;98335.47;;;17.33;63.21
34983;BME280;21187;50.976;13.720;2023-10-09T12:01:28;98332.72;;;17.33;63.64
34983;BME280;21187;50.976;13.720;2023-10-09T12:06:37;98318.28;;;17.29;63.78
34983;BME280;21187;50.976;13.720;2023-10-09T12:11:39;98315.91;;;17.38;63.79
34983;BME280;21187;50.976;13.720;2023-10-09T12:17:01;98328.44;;;17.46;63.54
34983;BME280;21187;50.976;13.720;2023-10-09T12:22:10;98320.19;;;17.39;63.86
34983;BME280;21187;50.976;13.720;2023-10-09T12:27:12;98318.25;;;17.33;64.18
34983;BME280;21187;50.976;13.720;2023-10-09T12:32:14;98328.81;;;17.38;64.22
34983;BME280;21187;50.976;13.720;2023-10-09T12:37:21;98314.72;;;17.43;64.07
34983;BME280;21187;50.976;13.720;2023-10-09T12:42:23;98317.88;;;17.41;64.34
34983;BME280;21187;50.976;13.720;2023-10-09T12:47:25;98320.19;;;17.39;64.62
34983;BME280;21187;50.976;13.720;2023-10-09T12:52:28;98317.88;;;17.34;64.81
34983;BME280;21187;50.976;13.720;2023-10-09T12:57:31;98324.13;;;17.38;64.85
34983;BME280;21187;50.976;13.720;2023-10-09T13:02:33;98319.44;;;17.39;64.89
34983;BME280;21187;50.976;13.720;2023-10-09T13:07:36;98321.00;;;17.36;64.86
34983;BME280;21187;50.976;13.720;2023-10-09T13:12:38;98326.47;;;17.43;64.75
34983;BME280;21187;50.976;13.720;2023-10-09T13:17:43;98317.06;;;17.44;64.94
34983;BME280;21187;50.976;13.720;2023-10-09T13:22:45;98306.13;;;17.44;65.10
34983;BME280;21187;50.976;13.720;2023-10-09T13:27:50;98307.69;;;17.45;64.96
34983;BME280;21187;50.976;13.720;2023-10-09T13:32:54;98304.97;;;17.53;64.95
34983;BME280;21187;50.976;13.720;2023-10-09T13:37:57;98306.13;;;17.55;64.90
34983;BME280;21187;50.976;13.720;2023-10-09T13:42:59;98307.69;;;17.53;65.13
34983;BME280;21187;50.976;13.720;2023-10-09T13:48:00;98299.88;;;17.48;65.25
34983;BME280;21187;50.976;13.720;2023-10-09T13:53:04;98315.50;;;17.54;65.26
34983;BME280;21187;50.976;13.720;2023-10-09T13:58:12;98317.84;;;17.56;65.43
34983;BME280;21187;50.976;13.720;2023-10-09T14:03:15;98322.56;;;17.55;65.61
34983;BME280;21187;50.976;13.720;2023-10-09T14:08:21;98316.31;;;17.48;65.80
34983;BME280;21187;50.976;13.720;2023-10-09T14:13:24;98313.94;;;17.50;65.69
34983;BME280;21187;50.976;13.720;2023-10-09T14:18:30;98316.66;;;17.60;65.31
34983;BME280;21187;50.976;13.720;2023-10-09T14:23:32;98318.63;;;17.63;65.16
34983;BME280;21187;50.976;13.720;2023-10-09T14:28:36;98309.63;;;17.63;65.20
34983;BME280;21187;50.976;13.720;2023-10-09T14:33:39;98304.16;;;17.59;65.09
34983;BME280;21187;50.976;13.720;2023-10-09T14:38:42;98317.09;;;17.52;65.42
34983;BME280;21187;50.976;13.720;2023-10-09T14:43:44;98320.22;;;17.46;65.71
34983;BME280;21187;50.976;13.720;2023-10-09T14:48:45;98318.63;;;17.45;65.60
34983;BME280;21187;50.976;13.720;2023-10-09T14:53:48;98308.50;;;17.46;65.53
34983;BME280;21187;50.976;13.720;2023-10-09T14:58:51;98318.25;;;17.54;65.35
34983;BME280;21187;50.976;13.720;2023-10-09T15:03:53;98308.06;;;17.58;65.13
34983;BME280;21187;50.976;13.720;2023-10-09T15:08:57;98317.06;;;17.59;65.23
34983;BME280;21187;50.976;13.720;2023-10-09T15:14:00;98320.56;;;17.63;65.10
34983;BME280;21187;50.976;13.720;2023-10-09T15:19:02;98320.22;;;17.65;64.99
34983;BME280;21187;50.976;13.720;2023-10-09T15:24:04;98329.59;;;17.60;65.18
34983;BME280;21187;50.976;13.720;2023-10-09T15:29:06;98335.47;;;17.62;65.11
34983;BME280;21187;50.976;13.720;2023-10-09T15:34:09;98332.72;;;17.62;65.13
34983;BME280;21187;50.976;13.720;2023-10-09T15:39:11;98341.72;;;17.59;65.40
34983;BME280;21187;50.976;13.720;2023-10-09T15:44:13;98342.09;;;17.61;65.27
34983;BME280;21187;50.976;13.720;2023-10-09T15:49:15;98347.97;;;17.56;65.43
34983;BME280;21187;50.976;13.720;2023-10-09T15:54:17;98345.25;;;17.49;65.65
34983;BME280;21187;50.976;13.720;2023-10-09T15:59:22;98345.25;;;17.56;65.53
34983;BME280;21187;50.976;13.720;2023-10-09T16:04:24;98350.72;;;17.56;65.52
34983;BME280;21187;50.976;13.720;2023-10-09T16:09:26;98345.22;;;17.52;65.68
34983;BME280;21187;50.976;13.720;2023-10-09T16:14:30;98348.38;;;17.43;66.06
34983;BME280;21187;50.976;13.720;2023-10-09T16:19:32;98360.09;;;17.44;66.03
34983;BME280;21187;50.976;13.720;2023-10-09T16:24:38;98372.63;;;17.49;65.76
34983;BME280;21187;50.976;13.720;2023-10-09T16:29:41;98371.47;;;17.57;65.49
34983;BME280;21187;50.976;13.720;2023-10-09T16:34:50;98372.22;;;17.61;65.24
34983;BME280;21187;50.976;13.720;2023-10-09T16:39:52;98369.88;;;17.56;65.47
34983;BME280;21187;50.976;13.720;2023-10-09T16:44:55;98373.41;;;17.56;65.43
34983;BME280;21187;50.976;13.720;2023-10-09T16:49:58;98367.94;;;17.53;65.39
34983;BME280;21187;50.976;13.720;2023-10-09T16:55:01;98368.72;;;17.57;65.69
34983;BME280;21187;50.976;13.720;2023-10-09T17:00:08;98378.09;;;17.56;65.65
34983;BME280;21187;50.976;13.720;2023-10-09T17:05:15;98377.31;;;17.52;65.90
34983;BME280;21187;50.976;13.720;2023-10-09T17:10:34;98378.09;;;17.52;65.89
34983;BME280;21187;50.976;13.720;2023-10-09T17:15:38;98392.19;;;17.51;66.08
34983;BME280;21187;50.976;13.720;2023-10-09T17:20:40;98392.16;;;17.47;66.21
34983;BME280;21187;50.976;13.720;2023-10-09T17:25:50;98396.88;;;17.54;66.03
34983;BME280;21187;50.976;13.720;2023-10-09T17:31:00;98387.09;;;17.53;66.19
34983;BME280;21187;50.976;13.720;2023-10-09T17:36:07;98394.91;;;17.47;66.47
34983;BME280;21187;50.976;13.720;2023-10-09T17:41:09;98407.03;;;17.50;66.55
34983;BME280;21187;50.976;13.720;2023-10-09T17:46:11;98409.38;;;17.51;66.57
34983;BME280;21187;50.976;13.720;2023-10-09T17:51:15;98401.56;;;17.50;66.62
34983;BME280;21187;50.976;13.720;2023-10-09T17:56:20;98403.13;;;17.54;66.53
34983;BME280;21187;50.976;13.720;2023-10-09T18:01:28;98407.84;;;17.61;66.52
34983;BME280;21187;50.976;13.720;2023-10-09T18:06:32;98415.66;;;17.62;66.52
34983;BME280;21187;50.976;13.720;2023-10-09T18:11:36;98410.16;;;17.59;66.72
34983;BME280;21187;50.976;13.720;2023-10-09T18:16:38;98409.00;;;17.53;66.98
34983;BME280;21187;50.976;13.720;2023-10-09T18:21:43;98411.75;;;17.53;67.14
34983;BME280;21187;50.976;13.720;2023-10-09T18:26:45;98403.91;;;17.58;67.10
34983;BME280;21187;50.976;13.720;2023-10-09T18:31:48;98408.59;;;17.61;67.00
34983;BME280;21187;50.976;13.720;2023-10-09T18:36:51;98400.00;;;17.70;66.74
34983;BME280;21187;50.976;13.720;2023-10-09T18:41:54;98407.81;;;17.68;66.99
34983;BME280;21187;50.976;13.720;2023-10-09T18:46:58;98407.06;;;17.71;67.02
34983;BME280;21187;50.976;13.720;2023-10-09T18:52:01;98408.59;;;17.72;67.02
34983;BME280;21187;50.976;13.720;2023-10-09T18:57:07;98409.41;;;17.73;67.05
34983;BME280;21187;50.976;13.720;2023-10-09T19:02:10;98408.59;;;17.72;67.23
34983;BME280;21187;50.976;13.720;2023-10-09T19:07:15;98414.47;;;17.71;67.29
34983;BME280;21187;50.976;13.720;2023-10-09T19:12:20;98404.69;;;17.77;67.25
34983;BME280;21187;50.976;13.720;2023-10-09T19:17:23;98418.78;;;17.79;67.24
34983;BME280;21187;50.976;13.720;2023-10-09T19:22:26;98420.34;;;17.84;67.23
34983;BME280;21187;50.976;13.720;2023-10-09T19:27:29;98412.53;;;17.86;67.25
34983;BME280;21187;50.976;13.720;2023-10-09T19:32:33;98410.16;;;17.88;67.29
34983;BME280;21187;50.976;13.720;2023-10-09T19:37:36;98410.97;;;17.85;67.37
34983;BME280;21187;50.976;13.720;2023-10-09T19:42:38;98418.78;;;17.83;67.61
34983;BME280;21187;50.976;13.720;2023-10-09T19:47:41;98412.53;;;17.78;67.67
34983;BME280;21187;50.976;13.720;2023-10-09T19:52:44;98418.00;;;17.82;67.83
34983;BME280;21187;50.976;13.720;2023-10-09T19:57:47;98417.22;;;17.82;67.83
34983;BME280;21187;50.976;13.720;2023-10-09T20:02:50;98423.09;;;17.87;67.51
34983;BME280;21187;50.976;13.720;2023-10-09T20:07:56;98439.53;;;17.91;67.60
34983;BME280;21187;50.976;13.720;2023-10-09T20:13:01;98438.38;;;17.99;67.33
34983;BME280;21187;50.976;13.720;2023-10-09T20:18:05;98437.59;;;17.95;67.54
34983;BME280;21187;50.976;13.720;2023-10-09T20:23:11;98434.47;;;17.93;67.70
34983;BME280;21187;50.976;13.720;2023-10-09T20:28:15;98446.19;;;17.93;67.58
34983;BME280;21187;50.976;13.720;2023-10-09T20:33:21;98446.56;;;17.92;67.83
34983;BME280;21187;50.976;13.720;2023-10-09T20:38:24;98464.97;;;17.88;67.86
34983;BME280;21187;50.976;13.720;2023-10-09T20:43:27;98463.81;;;17.96;67.68
34983;BME280;21187;50.976;13.720;2023-10-09T20:48:29;98474.00;;;17.99;67.42
34983;BME280;21187;50.976;13.720;2023-10-09T20:53:33;98478.31;;;17.93;67.57
34983;BME280;21187;50.976;13.720;2023-10-09T20:58:36;98478.25;;;17.89;67.89
34983;BME280;21187;50.976;13.720;2023-10-09T21:03:42;98486.53;;;17.93;67.75
34983;BME280;21187;50.976;13.720;2023-10-09T21:08:45;98491.59;;;17.94;67.75
34983;BME280;21187;50.976;13.720;2023-10-09T21:13:47;98490.84;;;17.98;67.80
34983;BME280;21187;50.976;13.720;2023-10-09T21:18:49;98491.63;;;17.98;67.62
34983;BME280;21187;50.976;13.720;2023-10-09T21:23:56;98493.19;;;17.99;67.85
34983;BME280;21187;50.976;13.720;2023-10-09T21:28:59;98491.59;;;18.05;67.44
34983;BME280;21187;50.976;13.720;2023-10-09T21:34:01;98501.38;;;18.06;67.50
34983;BME280;21187;50.976;13.720;2023-10-09T21:39:03;98502.97;;;18.00;67.76
34983;BME280;21187;50.976;13.720;2023-10-09T21:44:09;98505.72;;;18.00;67.85
34983;BME280;21187;50.976;13.720;2023-10-09T21:49:15;98515.09;;;18.06;67.73
34983;BME280;21187;50.976;13.720;2023-10-09T21:54:17;98506.47;;;18.08;67.63
34983;BME280;21187;50.976;13.720;2023-10-09T21:59:19;98510.38;;;18.10;67.58
34983;BME280;21187;50.976;13.720;2023-10-09T22:04:21;98523.72;;;18.12;67.38
34983;BME280;21187;50.976;13.720;2023-10-09T22:09:23;98510.78;;;18.09;67.68
34983;BME280;21187;50.976;13.720;2023-10-09T22:14:25;98511.59;;;18.09;67.53
34983;BME280;21187;50.976;13.720;2023-10-09T22:19:26;98513.94;;;18.07;67.47
34983;BME280;21187;50.976;13.720;2023-10-09T22:24:37;98510.38;;;18.10;67.42
34983;BME280;21187;50.976;13.720;2023-10-09T22:29:42;98519.81;;;18.09;67.42
34983;BME280;21187;50.976;13.720;2023-10-09T22:34:47;98515.50;;;18.08;67.48
34983;BME280;21187;50.976;13.720;2023-10-09T22:39:51;98519.78;;;18.17;67.08
34983;BME280;21187;50.976;13.720;2023-10-09T22:44:53;98519.03;;;18.12;67.19
34983;BME280;21187;50.976;13.720;2023-10-09T22:49:58;98517.44;;;18.11;67.29
34983;BME280;21187;50.976;13.720;2023-10-09T22:55:19;98523.31;;;18.06;67.34
34983;BME280;21187;50.976;13.720;2023-10-09T23:00:28;98522.94;;;18.11;67.22
34983;BME280;21187;50.976;13.720;2023-10-09T23:05:41;98520.56;;;18.06;67.45
34983;BME280;21187;50.976;13.720;2023-10-09T23:10:47;98521.38;;;18.07;67.36
34983;BME280;21187;50.976;13.720;2023-10-09T23:15:54;98519.78;;;18.17;66.96
34983;BME280;21187;50.976;13.720;2023-10-09T23:21:10;98520.19;;;18.11;67.18
34983;BME280;21187;50.976;13.720;2023-10-09T23:26:21;98527.66;;;18.15;66.88
34983;BME280;21187;50.976;13.720;2023-10-09T23:31:24;98540.94;;;18.20;66.68
34983;BME280;21187;50.976;13.720;2023-10-09T23:36:37;98546.41;;;18.23;66.25
34983;BME280;21187;50.976;13.720;2023-10-09T23:41:45;98544.06;;;18.18;66.54
34983;BME280;21187;50.976;13.720;2023-10-09T23:47:03;98540.94;;;18.12;66.75
34983;BME280;21187;50.976;13.720;2023-10-09T23:52:18;98544.88;;;18.04;66.97
34983;BME280;21187;50.976;13.720;2023-10-09T23:57:20;98552.69;;;18.09;66.87
